< < Back
Terminal Aerodrome Forecast


Current Version              Previous Versions:   1  2  3  4  5  6  7  8  9  

Terminal Aerodrome Forecast

210
FTUS44 KMOB 271141
TAFPNS
TAF
KPNS 271141Z 2712/2812 03010KT P6SM SCT040 BKN200
     FM271500 07010KT P6SM VCSH SCT025 BKN200
     FM271900 10012KT P6SM SHRA SCT025 BKN040
      TEMPO 2719/2723 3SM TSRA BR BKN025CB
     FM280000 11012KT 5SM TSRA BKN025CB=



Latest METAR

676
SAUS70 KWBC 271800 RRP
MTRPNS
METAR KPNS 271753Z 03008KT 8SM VCTS RA BKN019 BKN085 OVC110 19/17 A2985
RMK AO2 LTG DSNT ALQDS RAB13 SLP110 P0004 60005 T01890172
10206 20189 53010


USA.gov is the U.S. government's official web portal to all federal, state and local government web resources and services.